Time;durP1;ratioP1;P1;durP2;ratioP2;P2;SDS_P1;SDS_P2;PMS_P1;PMS_P2;Temp;Humidity;BMP_temperature;BMP_pressure;BME280_temperature;BME280_humidity;BME280_pressure;Samples;Min_cycle;Max_cycle;Signal;HPM_P1;HPM_P2
2024/01/02 00:00:27;;;;;;;1.80;1.58;;;;;;;4.76;100.00;96726.09;5022276;28;20409;-80
2024/01/02 00:02:53;;;;;;;4.85;1.90;;;;;;;4.74;100.00;96720.28;5022079;28;20427;-79
2024/01/02 00:05:20;;;;;;;7.47;2.17;;;;;;;4.70;100.00;96707.88;5021298;28;20893;-80
2024/01/02 00:07:46;;;;;;;6.45;2.30;;;;;;;4.79;100.00;96712.53;5023144;28;20448;-80
2024/01/02 00:10:14;;;;;;;3.17;1.90;;;;;;;4.81;100.00;96709.69;5023422;28;20472;-80
2024/01/02 00:12:40;;;;;;;6.85;1.92;;;;;;;4.78;100.00;96702.28;5023222;28;20397;-80
2024/01/02 00:15:07;;;;;;;4.72;1.88;;;;;;;4.78;100.00;96699.66;5022634;28;20400;-80
2024/01/02 00:17:33;;;;;;;4.10;2.00;;;;;;;4.81;100.00;96689.50;5022602;28;20404;-81
2024/01/02 00:19:59;;;;;;;3.87;2.07;;;;;;;4.81;100.00;96689.50;5022503;28;20423;-80
2024/01/02 00:22:25;;;;;;;3.53;2.00;;;;;;;4.79;100.00;96688.94;5022519;28;20401;-80
2024/01/02 00:24:52;;;;;;;3.70;1.95;;;;;;;4.79;100.00;96682.91;5021791;28;20432;-80
2024/01/02 00:27:19;;;;;;;9.73;2.90;;;;;;;4.74;100.00;96667.84;5020687;28;20416;-80
2024/01/02 00:29:45;;;;;;;7.78;2.75;;;;;;;4.75;100.00;96669.44;5022027;28;20407;-80
2024/01/02 00:32:12;;;;;;;2.80;1.70;;;;;;;4.82;100.00;96667.47;5022234;28;20483;-80
2024/01/02 00:34:38;;;;;;;5.85;2.20;;;;;;;4.76;100.00;96668.41;5021056;28;20393;-80
2024/01/02 00:37:05;;;;;;;1.98;1.60;;;;;;;4.79;100.00;96667.16;5022566;28;20408;-80
2024/01/02 00:39:31;;;;;;;4.97;2.15;;;;;;;4.77;100.00;96658.72;5021958;28;20400;-80
2024/01/02 00:41:57;;;;;;;2.20;1.70;;;;;;;4.79;100.00;96659.31;5020984;28;20396;-80
2024/01/02 00:44:25;;;;;;;1.80;1.50;;;;;;;4.77;100.00;96654.28;5021744;28;20416;-80
2024/01/02 00:46:51;;;;;;;4.20;1.98;;;;;;;4.75;100.00;96648.47;5021049;28;20403;-80
2024/01/02 00:49:17;;;;;;;2.58;1.80;;;;;;;4.75;100.00;96647.66;5021087;28;20403;-80
2024/01/02 00:51:44;;;;;;;4.40;1.90;;;;;;;4.75;100.00;96647.66;5021016;28;20436;-80
2024/01/02 00:54:10;;;;;;;3.03;1.90;;;;;;;4.74;100.00;96639.00;5019760;28;20401;-80
2024/01/02 00:56:36;;;;;;;4.50;2.17;;;;;;;4.75;100.00;96637.19;5021240;28;20408;-80
2024/01/02 00:59:02;;;;;;;5.40;1.90;;;;;;;4.73;100.00;96631.41;5021161;28;20405;-80
2024/01/02 01:01:30;;;;;;;3.03;1.67;;;;;;;4.73;100.00;96634.03;5020305;28;20416;-80
2024/01/02 01:03:56;;;;;;;3.78;1.80;;;;;;;4.76;100.00;96636.16;5022879;28;20405;-79
2024/01/02 01:06:22;;;;;;;3.25;1.65;;;;;;;4.75;100.00;96621.47;5022655;28;20458;-80
2024/01/02 01:08:48;;;;;;;4.35;2.08;;;;;;;4.74;100.00;96618.03;5021424;28;20427;-80
2024/01/02 01:11:15;;;;;;;5.30;2.00;;;;;;;4.74;100.00;96612.00;5021146;28;20401;-80
2024/01/02 01:13:41;;;;;;;3.53;1.90;;;;;;;4.71;100.00;96613.28;5021750;28;20777;-80
2024/01/02 01:16:07;;;;;;;3.17;1.70;;;;;;;4.70;100.00;96608.25;5019975;28;20885;-80
2024/01/02 01:18:34;;;;;;;3.72;1.63;;;;;;;4.72;100.00;96614.06;5020572;28;20896;-80
2024/01/02 01:21:00;;;;;;;2.28;1.70;;;;;;;4.74;100.00;96607.53;5020773;28;20427;-81
2024/01/02 01:23:28;;;;;;;4.13;2.00;;;;;;;4.69;100.00;96596.97;5020686;28;20416;-80
2024/01/02 01:25:54;;;;;;;2.47;1.70;;;;;;;4.72;100.00;96590.47;5021191;28;20488;-80
2024/01/02 01:28:20;;;;;;;6.40;2.10;;;;;;;4.73;100.00;96598.13;5021088;28;20475;-80
2024/01/02 01:30:46;;;;;;;1.65;1.40;;;;;;;4.74;100.00;96597.06;5021553;28;20866;-80
2024/01/02 01:33:12;;;;;;;2.38;1.42;;;;;;;4.72;100.00;96593.91;5021865;28;20469;-80
2024/01/02 01:35:40;;;;;;;3.42;1.85;;;;;;;4.68;100.00;96583.06;5020791;28;20397;-80
2024/01/02 01:38:07;;;;;;;1.80;1.50;;;;;;;4.74;100.00;96575.28;5021008;28;20769;-80
2024/01/02 01:40:34;;;;;;;2.20;1.45;;;;;;;4.75;100.00;96580.31;5032343;28;20420;-80
2024/01/02 01:43:00;;;;;;;1.60;1.50;;;;;;;4.75;100.00;96576.88;5033582;28;20416;-80
2024/01/02 01:45:26;;;;;;;1.65;1.55;;;;;;;4.74;100.00;96576.09;5032638;28;20405;-79
2024/01/02 01:47:53;;;;;;;2.42;1.65;;;;;;;4.72;100.00;96572.13;5022720;28;20408;-80
2024/01/02 01:50:19;;;;;;;3.72;1.63;;;;;;;4.69;100.00;96565.50;5020380;28;20401;-81
2024/01/02 01:52:47;;;;;;;6.10;1.92;;;;;;;4.64;100.00;96568.84;5019572;28;20397;-81
2024/01/02 01:55:13;;;;;;;3.13;1.80;;;;;;;4.71;100.00;96560.84;5020540;28;20404;-80
2024/01/02 01:57:42;;;;;;;2.22;1.60;;;;;;;4.73;100.00;96556.19;5021617;28;20496;-81
2024/01/02 02:00:09;;;;;;;1.75;1.30;;;;;;;4.73;100.00;96550.94;5020224;28;20405;-80
2024/01/02 02:02:35;;;;;;;1.50;1.40;;;;;;;4.74;100.00;96555.13;5020307;28;20401;-80
2024/01/02 02:05:02;;;;;;;3.60;2.00;;;;;;;4.69;100.00;96547.16;5019895;28;20425;-80
2024/01/02 02:07:30;;;;;;;2.70;1.70;;;;;;;4.67;100.00;96547.41;5019661;28;20456;-79
2024/01/02 02:09:57;;;;;;;2.65;1.73;;;;;;;4.76;100.00;96531.28;5018741;28;20396;-80
2024/01/02 02:12:23;;;;;;;3.13;2.00;;;;;;;4.77;100.00;96536.31;5020561;28;20401;-80
2024/01/02 02:14:50;;;;;;;2.40;1.60;;;;;;;4.84;100.00;96538.78;5020277;28;20435;-80
2024/01/02 02:17:20;;;;;;;1.83;1.50;;;;;;;4.86;100.00;96534.09;5019873;28;20411;-79
2024/01/02 02:19:46;;;;;;;2.33;1.80;;;;;;;4.87;100.00;96531.25;5019906;28;20389;-81
2024/01/02 02:22:13;;;;;;;4.93;1.83;;;;;;;4.88;100.00;96532.06;5020048;28;20409;-79
2024/01/02 02:24:41;;;;;;;2.55;1.60;;;;;;;4.88;100.00;96525.00;5019506;28;20790;-80
2024/01/02 02:27:10;;;;;;;1.77;1.65;;;;;;;4.86;100.00;96521.00;5019837;28;20824;-80
2024/01/02 02:29:36;;;;;;;2.22;1.52;;;;;;;4.84;100.00;96512.56;5019919;28;20396;-80
2024/01/02 02:32:02;;;;;;;2.95;1.65;;;;;;;4.83;100.00;96509.16;5019077;28;20870;-80
2024/01/02 02:34:29;;;;;;;2.70;1.70;;;;;;;4.82;100.00;96501.50;5019429;28;20400;-80
2024/01/02 02:36:55;;;;;;;1.50;1.40;;;;;;;4.80;100.00;96504.41;5020556;28;20476;-80
2024/01/02 02:39:21;;;;;;;1.90;1.63;;;;;;;4.80;100.00;96487.88;5020489;28;20431;-80
2024/01/02 02:41:48;;;;;;;1.50;1.40;;;;;;;4.79;100.00;96478.41;5019615;28;20421;-80
2024/01/02 02:44:15;;;;;;;4.90;1.73;;;;;;;4.74;100.00;96460.75;5018874;28;20444;-80
2024/01/02 02:46:41;;;;;;;2.97;1.60;;;;;;;4.78;100.00;96463.69;5019733;28;20397;-80
2024/01/02 02:49:07;;;;;;;4.82;1.90;;;;;;;4.72;100.00;96451.53;5018695;28;20451;-80
2024/01/02 02:51:33;;;;;;;2.10;1.65;;;;;;;4.75;100.00;96451.06;5019057;28;20401;-80
2024/01/02 02:54:00;;;;;;;1.50;1.40;;;;;;;4.71;100.00;96450.75;5019697;28;20439;-80
2024/01/02 02:56:26;;;;;;;1.50;1.40;;;;;;;4.68;100.00;96448.59;5019480;28;20435;-80
2024/01/02 02:58:53;;;;;;;7.82;2.20;;;;;;;4.63;100.00;96446.69;5018929;28;20411;-80
2024/01/02 03:01:23;;;;;;;1.80;1.70;;;;;;;4.59;100.00;96447.38;5019177;28;20435;-80
2024/01/02 03:03:49;;;;;;;1.73;1.60;;;;;;;4.57;100.00;96447.63;5019728;28;20405;-80
2024/01/02 03:06:15;;;;;;;2.92;1.65;;;;;;;4.52;100.00;96429.19;5020970;28;20455;-81
2024/01/02 03:08:42;;;;;;;1.80;1.70;;;;;;;4.51;100.00;96422.34;5019414;28;20494;-80
2024/01/02 03:11:08;;;;;;;3.47;1.77;;;;;;;4.47;100.00;96429.09;5019495;28;20397;-79
2024/01/02 03:13:34;;;;;;;1.98;1.70;;;;;;;4.42;100.00;96418.53;5018092;28;20935;-80
2024/01/02 03:16:02;;;;;;;5.35;2.10;;;;;;;4.42;100.00;96415.13;5018991;28;20482;-80
2024/01/02 03:18:28;;;;;;;4.38;2.00;;;;;;;4.38;100.00;96395.66;5022760;28;20491;-81
2024/01/02 03:20:54;;;;;;;3.78;1.80;;;;;;;4.38;100.00;96396.44;5023240;28;20397;-80
2024/01/02 03:23:20;;;;;;;1.98;1.60;;;;;;;4.37;100.00;96386.19;5023108;28;20470;-81
2024/01/02 03:25:46;;;;;;;2.95;2.00;;;;;;;4.33;100.00;96379.84;5022503;28;20404;-80
2024/01/02 03:28:13;;;;;;;1.70;1.60;;;;;;;4.32;100.00;96380.88;5023643;28;20431;-80
2024/01/02 03:30:40;;;;;;;2.92;1.50;;;;;;;4.32;100.00;96367.78;5023922;28;20428;-81
2024/01/02 03:33:08;;;;;;;3.22;1.80;;;;;;;4.28;100.00;96370.88;5023899;28;20405;-81
2024/01/02 03:35:34;;;;;;;3.30;1.70;;;;;;;4.26;100.00;96359.84;5024510;28;20397;-80
2024/01/02 03:38:00;;;;;;;2.40;1.60;;;;;;;4.25;100.00;96347.78;5024461;28;20416;-80
2024/01/02 03:40:26;;;;;;;1.60;1.50;;;;;;;4.21;100.00;96348.50;5021621;28;20393;-80
2024/01/02 03:42:53;;;;;;;2.93;1.60;;;;;;;4.19;100.00;96343.50;5020955;28;20479;-80
2024/01/02 03:45:19;;;;;;;2.20;1.73;;;;;;;4.19;100.00;96333.00;5021120;28;20515;-80
2024/01/02 03:47:45;;;;;;;1.58;1.48;;;;;;;4.19;100.00;96340.88;5021788;28;20444;-80
2024/01/02 03:50:12;;;;;;;2.30;1.70;;;;;;;4.18;100.00;96326.19;5021675;28;20397;-81
2024/01/02 03:52:38;;;;;;;1.60;1.50;;;;;;;4.18;100.00;96328.81;5022089;28;20397;-80
2024/01/02 03:55:05;;;;;;;1.60;1.50;;;;;;;4.21;100.00;96330.16;5021952;28;20444;-80
2024/01/02 03:57:34;;;;;;;1.73;1.63;;;;;;;4.20;100.00;96321.50;5021615;28;20405;-80
2024/01/02 04:00:00;;;;;;;1.60;1.50;;;;;;;4.21;100.00;96309.22;5021132;28;20458;-81
2024/01/02 04:02:26;;;;;;;3.22;1.67;;;;;;;4.19;100.00;96301.59;5019443;28;20576;-81
2024/01/02 04:04:52;;;;;;;3.90;1.70;;;;;;;4.20;100.00;96302.38;5019800;28;20420;-79
2024/01/02 04:07:20;;;;;;;3.50;1.60;;;;;;;4.20;100.00;96292.69;5018605;28;20420;-80
2024/01/02 04:09:46;;;;;;;2.17;1.77;;;;;;;4.19;100.00;96291.09;5019263;28;20401;-81
2024/01/02 04:12:12;;;;;;;2.20;1.60;;;;;;;4.21;100.00;96283.03;5019608;28;20478;-81
2024/01/02 04:14:38;;;;;;;8.38;1.90;;;;;;;4.21;100.00;96288.25;5020638;28;20396;-79
2024/01/02 04:17:04;;;;;;;1.50;1.40;;;;;;;4.22;100.00;96284.59;5019710;28;20487;-79
2024/01/02 04:19:31;;;;;;;2.20;1.60;;;;;;;4.23;100.00;96289.59;5019878;28;20789;-80
2024/01/02 04:21:57;;;;;;;1.67;1.58;;;;;;;4.23;100.00;96276.50;5020228;28;20404;-80
2024/01/02 04:24:25;;;;;;;5.50;1.73;;;;;;;4.24;100.00;96269.44;5027448;28;20750;-80
2024/01/02 04:26:52;;;;;;;3.33;1.73;;;;;;;4.23;100.00;96273.06;5026948;28;20401;-80
2024/01/02 04:29:18;;;;;;;1.80;1.60;;;;;;;4.22;100.00;96263.63;5021392;28;20412;-79
2024/01/02 04:31:44;;;;;;;1.60;1.50;;;;;;;4.23;100.00;96262.59;5019456;28;20420;-80
2024/01/02 04:34:10;;;;;;;2.92;1.60;;;;;;;4.24;100.00;96253.72;5019339;28;20940;-80
2024/01/02 04:36:36;;;;;;;3.58;1.50;;;;;;;4.24;100.00;96244.03;5019630;28;20405;-80
2024/01/02 04:39:03;;;;;;;2.58;1.50;;;;;;;4.23;100.00;96231.16;5018330;28;20451;-80
2024/01/02 04:41:30;;;;;;;3.25;1.70;;;;;;;4.21;100.00;96238.50;5018769;28;20404;-80
2024/01/02 04:43:56;;;;;;;2.13;1.70;;;;;;;4.20;100.00;96227.22;5019008;28;20877;-79
2024/01/02 04:46:23;;;;;;;3.20;1.80;;;;;;;4.19;100.00;96230.88;5019114;28;20408;-78
2024/01/02 04:48:49;;;;;;;2.58;1.73;;;;;;;4.19;100.00;96219.59;5019596;28;20471;-79
2024/01/02 04:51:15;;;;;;;2.08;1.55;;;;;;;4.19;100.00;96201.25;5020113;28;20392;-80
2024/01/02 04:53:41;;;;;;;2.40;1.63;;;;;;;4.18;100.00;96215.38;5021265;28;20436;-79
2024/01/02 04:56:07;;;;;;;2.60;1.80;;;;;;;4.18;100.00;96210.16;5019871;28;20407;-80
2024/01/02 04:58:35;;;;;;;3.72;1.83;;;;;;;4.16;100.00;96210.38;5020013;28;20409;-79
2024/01/02 05:01:02;;;;;;;2.95;1.80;;;;;;;4.17;100.00;96192.84;5019725;28;20440;-79
2024/01/02 05:03:28;;;;;;;3.63;2.00;;;;;;;4.17;100.00;96198.88;5020148;28;20403;-80
2024/01/02 05:05:54;;;;;;;3.92;1.92;;;;;;;4.17;100.00;96190.22;5019689;28;20397;-80
2024/01/02 05:08:21;;;;;;;3.70;1.90;;;;;;;4.15;100.00;96192.28;5018707;28;20475;-79
2024/01/02 05:10:47;;;;;;;4.28;2.05;;;;;;;4.14;100.00;96181.00;5019634;28;20487;-79
2024/01/02 05:13:13;;;;;;;2.35;1.95;;;;;;;4.15;100.00;96176.56;5019564;28;20397;-79
2024/01/02 05:15:40;;;;;;;3.72;2.00;;;;;;;4.13;100.00;96165.56;5020215;28;20393;-81
2024/01/02 05:18:07;;;;;;;3.58;2.10;;;;;;;4.14;100.00;96159.28;5020371;28;20916;-79
2024/01/02 05:20:33;;;;;;;2.60;1.90;;;;;;;4.13;100.00;96157.72;5020333;28;20393;-79
2024/01/02 05:23:03;;;;;;;3.55;2.10;;;;;;;4.14;100.00;96151.41;5019932;28;20404;-80
2024/01/02 05:25:29;;;;;;;2.92;2.10;;;;;;;4.16;100.00;96155.38;5020828;28;20488;-80
2024/01/02 05:27:55;;;;;;;4.20;2.03;;;;;;;4.16;100.00;96149.34;5020545;28;20476;-80
2024/01/02 05:30:22;;;;;;;2.60;1.90;;;;;;;4.17;100.00;96156.19;5021688;28;20408;-80
2024/01/02 05:32:49;;;;;;;2.20;2.00;;;;;;;4.18;100.00;96148.09;5021602;28;20405;-80
2024/01/02 05:35:15;;;;;;;3.00;2.00;;;;;;;4.18;100.00;96142.06;5021582;28;20400;-80
2024/01/02 05:37:41;;;;;;;4.93;2.10;;;;;;;4.17;100.00;96143.09;5022179;28;20923;-80
2024/01/02 05:40:09;;;;;;;4.70;2.05;;;;;;;4.17;100.00;96133.41;5021461;28;20428;-80
2024/01/02 05:42:35;;;;;;;3.08;1.80;;;;;;;4.18;100.00;96132.38;5021686;28;20393;-80
2024/01/02 05:45:01;;;;;;;5.03;2.10;;;;;;;4.18;100.00;96142.06;5020970;28;20400;-80
2024/01/02 05:47:28;;;;;;;3.00;2.00;;;;;;;4.18;100.00;96137.63;5021532;28;20416;-80
2024/01/02 05:49:55;;;;;;;4.00;2.10;;;;;;;4.19;100.00;96130.56;5024418;28;20490;-80
2024/01/02 05:52:21;;;;;;;2.63;2.00;;;;;;;4.19;100.00;96123.50;5020505;28;20393;-80
2024/01/02 05:54:47;;;;;;;3.75;2.13;;;;;;;4.21;100.00;96118.03;5022725;28;20801;-80
2024/01/02 05:57:14;;;;;;;2.58;2.00;;;;;;;4.23;100.00;96108.88;5019294;28;20411;-80
2024/01/02 05:59:40;;;;;;;4.35;2.10;;;;;;;4.23;100.00;96102.84;5019973;28;20496;-79
2024/01/02 06:02:06;;;;;;;2.78;1.77;;;;;;;4.24;100.00;96099.19;5021644;28;20411;-79
2024/01/02 06:04:32;;;;;;;3.43;2.10;;;;;;;4.24;100.00;96104.41;5021878;28;20404;-80
2024/01/02 06:07:00;;;;;;;7.45;2.50;;;;;;;4.25;100.00;96095.53;5021975;28;20889;-80
2024/01/02 06:09:26;;;;;;;2.58;2.15;;;;;;;4.26;100.00;96087.44;5021179;28;20962;-80
2024/01/02 06:11:52;;;;;;;3.70;2.10;;;;;;;4.27;100.00;96093.47;5022286;28;20429;-79
2024/01/02 06:14:18;;;;;;;3.05;2.00;;;;;;;4.28;100.00;96089.81;5020249;28;20769;-80
2024/01/02 06:16:44;;;;;;;2.20;1.90;;;;;;;4.27;100.00;96089.03;5020757;28;20397;-80
2024/01/02 06:19:11;;;;;;;3.20;2.10;;;;;;;4.29;100.00;96086.16;5022539;28;20431;-80
2024/01/02 06:21:37;;;;;;;3.10;1.98;;;;;;;4.30;100.00;96077.25;5022895;28;20769;-80
2024/01/02 06:24:05;;;;;;;3.58;2.10;;;;;;;4.30;100.00;96082.50;5022257;28;20755;-79
2024/01/02 06:26:31;;;;;;;3.43;1.90;;;;;;;4.32;100.00;96075.19;5022526;28;20405;-80
2024/01/02 06:28:58;;;;;;;4.00;1.90;;;;;;;4.34;100.00;96077.56;5022324;28;20476;-80
2024/01/02 06:31:24;;;;;;;2.60;1.95;;;;;;;4.35;100.00;96072.09;5021521;28;20447;-79
2024/01/02 06:33:51;;;;;;;3.42;1.90;;;;;;;4.34;100.00;96065.28;5020624;28;20546;-79
2024/01/02 06:36:17;;;;;;;2.63;1.73;;;;;;;4.37;100.00;96050.88;5022243;28;20393;-80
2024/01/02 06:38:43;;;;;;;2.35;2.00;;;;;;;4.39;100.00;96057.47;5022020;28;20404;-80
2024/01/02 06:41:11;;;;;;;2.33;2.08;;;;;;;4.41;100.00;96058.03;5022049;28;20400;-81
2024/01/02 06:43:37;;;;;;;1.92;1.70;;;;;;;4.41;100.00;96059.84;5022039;28;20420;-81
2024/01/02 06:46:03;;;;;;;2.83;2.00;;;;;;;4.44;100.00;96057.50;5022436;28;20424;-81
2024/01/02 06:48:29;;;;;;;1.80;1.70;;;;;;;4.46;100.00;96047.59;5022465;28;20790;-80
2024/01/02 06:50:56;;;;;;;1.80;1.70;;;;;;;4.48;100.00;96042.09;5021319;28;20419;-80
2024/01/02 06:53:23;;;;;;;2.95;1.90;;;;;;;4.49;100.00;96038.47;5021728;28;20407;-81
2024/01/02 06:55:49;;;;;;;2.35;1.85;;;;;;;4.50;100.00;96032.19;5022150;28;20393;-80
2024/01/02 06:58:16;;;;;;;2.80;1.83;;;;;;;4.50;100.00;96043.47;5023519;28;20909;-80
2024/01/02 07:00:42;;;;;;;2.40;1.88;;;;;;;4.53;100.00;96040.34;5022284;28;20404;-80
2024/01/02 07:03:09;;;;;;;3.17;2.07;;;;;;;4.53;100.00;96035.09;5023116;28;20451;-80
2024/01/02 07:05:36;;;;;;;2.90;1.75;;;;;;;4.57;100.00;96017.06;5022747;28;20468;-80
2024/01/02 07:08:03;;;;;;;3.17;2.08;;;;;;;4.57;100.00;96024.91;5018723;28;20495;-81
2024/01/02 07:10:29;;;;;;;4.28;2.00;;;;;;;4.59;100.00;96025.44;5023810;28;20388;-82
2024/01/02 07:12:56;;;;;;;3.65;1.80;;;;;;;4.59;100.00;96014.97;5018599;28;20400;-82
2024/01/02 07:15:23;;;;;;;1.85;1.70;;;;;;;4.62;100.00;96028.38;5020485;28;20402;-81
2024/01/02 07:17:49;;;;;;;3.40;1.90;;;;;;;4.63;100.00;96021.31;5028903;28;20427;-81
2024/01/02 07:20:15;;;;;;;1.77;1.60;;;;;;;4.66;100.00;96012.97;5030986;28;20462;-83
2024/01/02 07:22:42;;;;;;;3.17;1.77;;;;;;;4.69;100.00;96017.69;5020503;28;20403;-83
2024/01/02 07:25:08;;;;;;;3.00;1.80;;;;;;;4.70;100.00;96014.03;5016824;28;20405;-82
2024/01/02 07:27:34;;;;;;;2.17;1.80;;;;;;;4.70;100.00;96014.03;5018687;28;20447;-83
2024/01/02 07:30:01;;;;;;;4.38;1.90;;;;;;;4.73;100.00;96018.00;5015533;28;20758;-81
2024/01/02 07:32:28;;;;;;;5.18;1.60;;;;;;;4.75;100.00;96019.31;5018708;28;20450;-79
2024/01/02 07:34:54;;;;;;;1.88;1.60;;;;;;;4.75;100.00;95998.34;5016422;28;20484;-78
2024/01/02 07:37:20;;;;;;;2.35;1.50;;;;;;;4.76;100.00;96007.81;5018184;28;20432;-79
2024/01/02 07:39:46;;;;;;;2.63;1.60;;;;;;;4.81;100.00;96012.31;5018457;28;20637;-78
2024/01/02 07:42:13;;;;;;;3.67;1.60;;;;;;;4.85;100.00;96022.06;5016594;28;20496;-80
2024/01/02 07:44:39;;;;;;;3.97;1.65;;;;;;;4.89;100.00;96009.22;5016986;28;20419;-80
2024/01/02 07:47:05;;;;;;;1.52;1.40;;;;;;;4.91;100.00;96015.81;5016626;28;20401;-82
2024/01/02 07:49:33;;;;;;;3.13;1.73;;;;;;;4.93;100.00;96018.19;5015293;28;20419;-81
2024/01/02 07:51:59;;;;;;;1.67;1.58;;;;;;;4.96;100.00;96020.34;5015962;28;20834;-80
2024/01/02 07:54:25;;;;;;;3.53;1.50;;;;;;;5.01;100.00;96021.16;5014982;28;20408;-84
2024/01/02 07:56:51;;;;;;;1.50;1.40;;;;;;;5.07;100.00;96028.03;5016375;28;20484;-81
2024/01/02 07:59:19;;;;;;;1.88;1.48;;;;;;;5.11;100.00;96019.66;5015409;28;20413;-85
2024/01/02 08:01:47;;;;;;;1.50;1.33;;;;;;;5.15;100.00;96018.13;5014005;28;20416;-83
2024/01/02 08:04:13;;;;;;;1.50;1.40;;;;;;;5.20;100.00;96018.94;5020103;28;20396;-80
2024/01/02 08:06:41;;;;;;;2.20;1.20;;;;;;;5.23;100.00;96034.19;5019724;28;20428;-82
2024/01/02 08:09:07;;;;;;;1.52;1.17;;;;;;;5.28;100.00;96017.69;5022460;28;20424;-82
2024/01/02 08:11:33;;;;;;;2.70;1.20;;;;;;;5.31;100.00;96012.75;5022477;28;20905;-83
2024/01/02 08:13:59;;;;;;;1.20;1.10;;;;;;;5.33;100.00;96017.75;5021943;28;20417;-81
2024/01/02 08:16:25;;;;;;;1.48;1.38;;;;;;;5.36;100.00;95996.25;5021324;28;20412;-82
2024/01/02 08:18:51;;;;;;;1.58;1.30;;;;;;;5.37;100.00;96009.13;5019816;28;20459;-80
2024/01/02 08:21:18;;;;;;;1.08;1.08;;;;;;;5.42;100.00;96010.97;5020433;28;20405;-81
2024/01/02 08:23:47;;;;;;;1.27;1.20;;;;;;;5.44;100.00;96027.28;5022000;28;20877;-79
2024/01/02 08:26:13;;;;;;;3.10;1.30;;;;;;;5.47;100.00;96025.97;5020209;28;20427;-79
2024/01/02 08:28:40;;;;;;;1.60;1.50;;;;;;;5.50;100.00;96030.72;5019909;28;20446;-80
2024/01/02 08:31:06;;;;;;;1.40;1.10;;;;;;;5.52;100.00;96041.75;5019579;28;20401;-80
2024/01/02 08:33:32;;;;;;;1.42;1.33;;;;;;;5.53;100.00;96041.50;5019653;28;20854;-78
2024/01/02 08:35:58;;;;;;;1.10;1.10;;;;;;;5.54;100.00;96050.19;5018251;28;20411;-78
2024/01/02 08:38:24;;;;;;;1.13;1.02;;;;;;;5.58;100.00;96099.28;5019130;28;20411;-80
2024/01/02 08:40:52;;;;;;;1.83;1.27;;;;;;;5.64;100.00;96037.13;5019684;28;20401;-81
2024/01/02 08:43:18;;;;;;;1.10;1.10;;;;;;;5.66;100.00;96040.28;5017271;28;20747;-79
2024/01/02 08:45:45;;;;;;;2.20;1.20;;;;;;;5.69;100.00;96034.53;5018555;28;20405;-79
2024/01/02 08:48:11;;;;;;;2.00;1.10;;;;;;;5.74;100.00;96045.84;5019245;28;20456;-78
2024/01/02 08:50:41;;;;;;;1.20;1.10;;;;;;;5.79;100.00;96032.75;5019255;28;20393;-79
2024/01/02 08:53:08;;;;;;;1.58;1.20;;;;;;;5.83;100.00;96043.53;5020406;28;20430;-79
2024/01/02 08:55:34;;;;;;;1.10;1.10;;;;;;;5.84;100.00;96048.56;5017193;28;20474;-77
2024/01/02 08:58:06;;;;;;;1.10;1.00;;;;;;;5.90;100.00;96024.97;5017618;28;20825;-79
2024/01/02 09:00:32;;;;;;;2.08;1.10;;;;;;;5.91;100.00;96040.47;5018118;28;20420;-78
2024/01/02 09:03:00;;;;;;;1.10;1.00;;;;;;;5.99;100.00;96037.38;5016745;28;20484;-79
2024/01/02 09:05:26;;;;;;;1.10;1.10;;;;;;;6.01;100.00;96037.13;5016661;28;20404;-79
2024/01/02 09:07:53;;;;;;;1.70;1.15;;;;;;;6.03;100.00;96042.91;5015675;28;20427;-79
2024/01/02 09:10:19;;;;;;;1.00;1.00;;;;;;;6.04;100.00;96050.53;5016024;28;20411;-79
2024/01/02 09:12:45;;;;;;;1.40;1.10;;;;;;;6.08;100.00;96048.19;5016858;28;20758;-80
2024/01/02 09:15:13;;;;;;;1.45;1.20;;;;;;;6.07;100.00;96046.59;5017975;28;20404;-80
2024/01/02 09:17:39;;;;;;;1.20;1.10;;;;;;;6.11;100.00;96045.84;5020000;28;20412;-79
2024/01/02 09:20:06;;;;;;;2.40;1.20;;;;;;;6.15;100.00;96046.91;5017049;28;20896;-77
2024/01/02 09:22:32;;;;;;;1.25;1.20;;;;;;;6.19;100.00;96050.59;5014403;28;20424;-77
2024/01/02 09:24:59;;;;;;;1.10;1.10;;;;;;;6.22;100.00;96060.63;5012319;28;20401;-77
2024/01/02 09:27:28;;;;;;;1.10;1.10;;;;;;;6.25;100.00;96059.28;5013443;28;20389;-78
2024/01/02 09:29:54;;;;;;;1.20;1.10;;;;;;;6.32;100.00;96059.06;5012766;28;20405;-78
2024/01/02 09:32:22;;;;;;;1.00;1.00;;;;;;;6.33;100.00;96068.53;5013796;28;20428;-78
2024/01/02 09:34:48;;;;;;;1.57;1.10;;;;;;;6.38;100.00;96069.38;5013337;28;20405;-77
2024/01/02 09:37:16;;;;;;;1.10;1.10;;;;;;;6.43;100.00;96063.31;5013023;28;20397;-78
2024/01/02 09:39:43;;;;;;;1.50;1.00;;;;;;;6.42;100.00;96070.41;5013138;28;20401;-78
2024/01/02 09:42:31;;;;;;;1.10;1.00;;;;;;;6.45;100.00;96074.38;5012582;28;20432;-78
2024/01/02 09:45:08;;;;;;;1.10;1.10;;;;;;;6.48;100.00;96058.88;5011438;28;20397;-78
2024/01/02 09:47:49;;;;;;;1.00;1.00;;;;;;;6.55;100.00;96066.50;5010434;28;20480;-78
2024/01/02 09:50:27;;;;;;;1.10;1.00;;;;;;;6.51;100.00;96068.88;5020940;28;20407;-79
2024/01/02 09:53:09;;;;;;;1.47;1.30;;;;;;;6.57;100.00;96067.84;5030144;28;20427;-79
2024/01/02 09:55:44;;;;;;;1.10;1.10;;;;;;;6.61;100.00;96058.38;5014202;28;20411;-80
2024/01/02 09:58:19;;;;;;;1.20;1.10;;;;;;;6.61;100.00;96053.13;5018663;28;20403;-80
2024/01/02 10:00:56;;;;;;;0.90;0.90;;;;;;;6.68;100.00;96058.16;5010496;28;20431;-79
2024/01/02 10:03:43;;;;;;;1.00;1.00;;;;;;;6.69;100.00;96069.47;5017738;28;20949;-79
2024/01/02 10:06:32;;;;;;;1.08;1.08;;;;;;;6.74;100.00;96058.97;5018647;28;20515;-80
2024/01/02 10:09:16;;;;;;;1.00;1.00;;;;;;;6.84;100.00;96065.03;5013719;28;20570;-78
2024/01/02 10:11:53;;;;;;;1.00;1.00;;;;;;;6.90;100.00;96058.75;5014443;28;20401;-81
2024/01/02 10:14:27;;;;;;;1.33;1.00;;;;;;;6.95;100.00;96053.50;5015897;28;20435;-79
2024/01/02 10:17:03;;;;;;;1.08;1.00;;;;;;;6.99;100.00;96061.66;5017574;28;20397;-79
2024/01/02 10:19:41;;;;;;;1.08;1.00;;;;;;;7.02;100.00;96062.97;5017117;28;20457;-80
2024/01/02 10:22:13;;;;;;;0.90;0.90;;;;;;;7.06;100.00;96049.06;5015694;28;20423;-80
2024/01/02 10:24:49;;;;;;;1.00;1.00;;;;;;;7.04;100.00;96061.66;5014987;28;20408;-79
2024/01/02 10:27:20;;;;;;;1.00;1.00;;;;;;;7.06;100.00;96051.69;5016575;28;20401;-80
2024/01/02 10:29:58;;;;;;;1.05;1.02;;;;;;;7.08;100.00;96041.66;5015576;28;20685;-79
2024/01/02 10:32:34;;;;;;;1.10;1.00;;;;;;;7.08;100.00;96040.88;5008284;28;20455;-79
2024/01/02 10:35:10;;;;;;;1.08;1.08;;;;;;;7.07;100.00;96049.84;5015683;28;20401;-79
2024/01/02 10:37:42;;;;;;;1.00;1.00;;;;;;;7.16;100.00;96032.47;5015974;28;20405;-79
2024/01/02 10:40:16;;;;;;;1.02;1.02;;;;;;;7.21;100.00;96048.28;5014266;28;20385;-79
2024/01/02 10:42:52;;;;;;;1.50;0.90;;;;;;;7.17;100.00;96032.22;5015402;28;20392;-80
2024/01/02 10:45:26;;;;;;;1.10;1.00;;;;;;;7.17;100.00;96028.78;5008072;28;20455;-78
2024/01/02 10:48:10;;;;;;;1.00;1.00;;;;;;;7.26;100.00;96030.66;5014246;28;20854;-78
2024/01/02 10:50:50;;;;;;;1.02;1.00;;;;;;;7.30;100.00;96005.38;5014381;28;20746;-79
2024/01/02 10:53:32;;;;;;;1.00;1.00;;;;;;;7.36;100.00;96014.88;5012211;28;20396;-78
2024/01/02 10:56:08;;;;;;;0.90;0.90;;;;;;;7.43;100.00;96019.84;5019153;28;20408;-79
2024/01/02 10:58:41;;;;;;;0.90;0.90;;;;;;;7.54;100.00;96010.09;5019159;28;20407;-79
2024/01/02 11:01:16;;;;;;;1.10;1.00;;;;;;;7.63;100.00;96004.03;5015514;28;20492;-79
2024/01/02 11:03:52;;;;;;;1.00;1.00;;;;;;;7.67;100.00;96012.97;5023609;28;20460;-79
2024/01/02 11:06:30;;;;;;;0.80;0.80;;;;;;;7.72;100.00;95999.03;5020155;28;20405;-79
2024/01/02 11:09:03;;;;;;;0.80;0.80;;;;;;;7.78;100.00;96001.38;5012940;28;20416;-80
2024/01/02 11:11:34;;;;;;;0.90;0.90;;;;;;;7.82;100.00;95995.59;5022645;28;20401;-77
2024/01/02 11:14:01;;;;;;;0.85;0.85;;;;;;;7.82;100.00;95998.97;5028032;28;20423;-80
2024/01/02 11:16:30;;;;;;;0.90;0.90;;;;;;;7.93;100.00;95997.91;5026207;28;20384;-79
2024/01/02 11:18:58;;;;;;;1.20;0.90;;;;;;;7.87;100.00;95998.19;5032691;28;20405;-80
2024/01/02 11:21:33;;;;;;;0.87;0.87;;;;;;;8.01;100.00;95989.47;5027342;28;20443;-80
2024/01/02 11:24:03;;;;;;;1.00;1.00;;;;;;;8.11;100.00;95988.66;5018993;28;20751;-81
2024/01/02 11:26:34;;;;;;;0.90;0.90;;;;;;;8.13;100.00;95987.28;5012890;28;20408;-80
2024/01/02 11:29:03;;;;;;;0.80;0.80;;;;;;;8.16;100.00;95975.44;5015277;28;20503;-80
2024/01/02 11:31:31;;;;;;;2.53;0.93;;;;;;;8.26;100.00;95969.34;5015181;28;20460;-80
2024/01/02 11:34:13;;;;;;;0.80;0.80;;;;;;;8.40;100.00;95946.63;5012208;28;20413;-80
2024/01/02 11:36:55;;;;;;;0.90;0.90;;;;;;;8.54;100.00;95955.50;5018984;28;20400;-80